Latest Weather Observations for Parafield

IDS60801

Issued at 2:05 am CST Wednesday 30 July 2014 (issued every 30 minutes, with the page automatically refreshed every 10 minutes)

About weather observations | Map of weather stations | Latest weather observations for SA | Other Formats
Station Details ID: 023013 Name: PARAFIELD AIRPORT Lat: -34.80 Lon: 138.63 Height: 9.5 m
Data from the previous 72 hours. | See also: Recent months at Parafield
Date/Time
CST
Temp
°C
App
Temp
°C
Dew
Point
Rel
Hum
%
Delta-T
°C
Wind Press
QNH
hPa
Press
MSL
hPa
Rain
since 9 am
mm
Dir
 
Spd
km/h
Gust
km/h
Spd
kts
Gust
kts
30/02:00am 13.3 10.2 11.7 90 0.9 NNW 19 24 10 13 1018.6 - 0.4
30/01:30am 13.5 10.5 11.9 90 0.9 NNW 19 24 10 13 1018.9 - 0.4
30/01:00am 13.5 10.4 12.1 91 0.8 NNW 20 28 11 15 1018.8 - 0.4
30/12:30am 13.7 10.6 12.1 90 0.9 NNW 20 30 11 16 1018.8 - 0.4
30/12:00am 13.8 10.9 12.2 90 0.9 NW 19 30 10 16 1019.1 1019.1 0.4
 
Date/Time
CST
Temp
°C
App
Temp
°C
Dew
Point
Rel
Hum
%
Delta-T
°C
Wind Press
QNH
hPa
Press
MSL
hPa
Rain
since 9 am
mm
Dir
 
Spd
km/h
Gust
km/h
Spd
kts
Gust
kts
29/11:30pm 13.8 10.7 12.2 90 0.9 NW 20 28 11 15 1019.1 - 0.4
29/11:00pm 13.8 10.4 12.4 91 0.8 NW 22 33 12 18 1019.1 - 0.4
29/10:30pm 13.8 10.4 12.4 91 0.8 NW 22 30 12 16 1019.1 - 0.4
29/10:00pm 14.2 10.7 12.1 87 1.1 WNW 22 33 12 18 1019.1 - 0.4
29/09:30pm 13.8 10.9 12.2 90 0.9 NW 19 24 10 13 1018.9 - 0.4
29/09:00pm 14.0 10.6 12.4 90 0.9 WNW 22 32 12 17 1018.8 1018.8 0.4
29/08:58pm 14.0 10.6 12.4 90 0.9 WNW 22 32 12 17 1018.7 - 0.4
29/08:31pm 13.6 9.0 12.2 91 0.8 WNW 28 41 15 22 1018.7 - 0.4
29/08:30pm 13.6 9.0 12.2 91 0.8 WNW 28 41 15 22 1018.6 - 0.4
29/08:18pm 13.6 8.6 12.2 91 0.8 WNW 30 46 16 25 1018.5 - 0.4
29/08:14pm 13.6 8.2 12.2 91 0.8 W 32 46 17 25 1018.5 - 0.4
29/08:00pm 14.3 9.2 11.8 85 1.3 WNW 30 44 16 24 1018.3 - 0.4
29/07:59pm 14.4 9.7 11.9 85 1.3 W 28 44 15 24 1018.3 - 0.4
29/07:30pm 13.8 10.6 12.0 89 1.0 WNW 20 26 11 14 1018.2 - 0.4
29/07:15pm 13.7 11.3 12.6 93 0.6 WNW 17 24 9 13 1018.1 - 0.4
29/07:14pm 13.7 10.9 12.6 93 0.6 WNW 19 30 10 16 1018.1 - 0.4
29/07:00pm 13.9 9.5 12.8 93 0.6 W 28 39 15 21 1018.1 - 0.4
29/06:49pm 14.2 10.0 12.4 89 1.0 W 26 35 14 19 1018.1 - 0.0
29/06:48pm 14.4 10.2 12.3 87 1.1 W 26 35 14 19 1018.2 - 0.0
29/06:30pm 14.8 11.2 11.8 82 1.6 WNW 22 30 12 16 1017.7 - 0.0
29/06:00pm 15.0 12.0 11.8 81 1.7 NW 19 26 10 14 1017.3 1017.3 0.0
29/05:30pm 14.7 12.1 12.0 84 1.5 WNW 17 22 9 12 1017.2 - 0.0
29/05:00pm 15.1 12.0 12.1 82 1.6 WNW 20 28 11 15 1017.0 - 0.0
29/04:37pm 14.9 11.9 12.4 85 1.4 WNW 20 30 11 16 1016.8 - 0.0
29/04:32pm 14.8 12.0 12.5 86 1.3 WNW 19 24 10 13 1016.8 - 0.0
29/04:30pm 14.8 12.0 12.5 86 1.3 WNW 19 24 10 13 1016.8 - 0.0
29/04:12pm 14.9 11.2 12.6 86 1.3 NW 24 35 13 19 1016.8 - 0.0
29/04:06pm 15.0 12.0 12.5 85 1.4 NW 20 32 11 17 1016.6 - 0.0
29/04:00pm 15.1 11.7 12.6 85 1.4 WNW 22 35 12 19 1016.6 - 0.0
29/03:30pm 15.3 11.0 12.2 82 1.7 NW 26 35 14 19 1016.4 - 0.0
29/03:00pm 15.4 10.8 12.2 81 1.7 NW 28 41 15 22 1016.4 1016.4 0.0
29/02:30pm 15.4 10.4 12.2 81 1.7 NW 30 43 16 23 1016.3 - 0.0
29/02:00pm 15.6 10.1 12.0 79 2.0 NW 32 44 17 24 1016.2 - 0.0
29/01:30pm 15.7 9.6 11.7 77 2.2 NW 35 54 19 29 1016.2 - 0.0
29/01:19pm 16.3 10.9 12.1 76 2.3 NW 32 50 17 27 1016.3 - 0.0
29/01:00pm 16.5 11.6 12.5 77 2.2 NW 30 39 16 21 1016.2 - 0.0
29/12:30pm 15.2 10.1 11.8 80 1.8 NW 30 48 16 26 1016.6 - 0.0
29/12:05pm 15.2 9.7 11.8 80 1.8 NW 32 50 17 27 1017.0 - 0.0
29/12:00pm 15.3 9.6 11.7 79 1.9 NW 33 44 18 24 1017.0 1017.0 0.0
29/11:45am 15.9 10.3 12.1 78 2.1 NW 33 52 18 28 1017.1 - 0.0
29/11:30am 15.7 10.2 11.7 77 2.2 NW 32 44 17 24 1017.3 - 0.0
29/11:00am 16.0 10.9 11.8 76 2.3 NW 30 41 16 22 1017.2 - 0.0
29/10:30am 14.6 9.4 11.6 82 1.6 NNW 30 41 16 22 1017.1 - 0.0
29/10:02am 14.0 9.4 11.2 83 1.5 NW 26 35 14 19 1017.4 - 0.0
29/10:00am 13.9 9.3 11.1 83 1.5 NW 26 35 14 19 1017.4 - 0.0
29/09:30am 13.3 9.4 10.8 85 1.3 NW 22 30 12 16 1017.3 - 0.0
29/09:15am 13.1 9.7 10.5 84 1.4 NNW 19 30 10 16 1017.2 - 0.0
29/09:00am 12.8 8.7 10.2 84 1.3 NNW 22 30 12 16 1017.1 1017.1 0.0
29/08:30am 12.0 9.1 9.7 86 1.2 NNW 15 24 8 13 1016.7 - 0.0
29/08:00am 11.3 7.5 9.0 86 1.1 NW 19 28 10 15 1016.3 - 0.0
29/07:30am 10.4 6.8 8.2 86 1.1 NNW 17 22 9 12 1016.4 - 0.0
29/07:00am 10.3 6.0 7.9 85 1.2 NNW 20 28 11 15 1016.2 - 0.0
29/06:30am 10.6 5.6 8.0 84 1.3 NNW 24 33 13 18 1015.8 - 0.0
29/06:00am 10.5 5.8 7.6 82 1.4 NNW 22 32 12 17 1015.7 1015.7 0.0
29/05:30am 10.2 5.8 7.3 82 1.4 NW 20 28 11 15 1016.2 - 0.0
29/05:00am 8.8 5.1 6.4 85 1.1 N 15 20 8 11 1015.8 - 0.0
29/04:30am 8.1 4.0 6.1 87 0.9 N 17 19 9 10 1016.1 - 0.0
29/04:00am 8.0 5.0 6.0 87 0.9 NNE 11 15 6 8 1016.4 - 0.0
29/03:30am 8.5 5.6 6.3 86 1.0 NNE 11 15 6 8 1016.4 - 0.0
29/03:00am 8.8 4.8 6.8 87 0.9 NNE 17 20 9 11 1016.1 1016.1 0.0
29/02:30am 8.6 5.7 6.7 88 0.9 NNE 11 15 6 8 1016.5 - 0.0
29/02:00am 8.3 5.1 6.8 90 0.7 NNE 13 15 7 8 1016.5 - 0.0
29/01:30am 7.7 5.1 6.3 91 0.6 NNE 9 13 5 7 1016.9 - 0.0
29/01:00am 7.6 3.9 6.4 92 0.5 NE 15 17 8 9 1016.8 - 0.0
29/12:30am 7.1 4.1 5.9 92 0.5 NE 11 13 6 7 1017.1 - 0.0
29/12:00am 7.4 5.2 6.2 92 0.5 NNE 7 9 4 5 1017.2 1017.2 0.0
 
Date/Time
CST
Temp
°C
App
Temp
°C
Dew
Point
Rel
Hum
%
Delta-T
°C
Wind Press
QNH
hPa
Press
MSL
hPa
Rain
since 9 am
mm
Dir
 
Spd
km/h
Gust
km/h
Spd
kts
Gust
kts
28/11:30pm 7.7 5.2 6.5 92 0.5 NNE 9 11 5 6 1017.3 - 0.0
28/11:00pm 7.9 5.0 6.7 92 0.6 NE 11 13 6 7 1017.3 - 0.0
28/10:30pm 9.3 7.4 7.4 88 0.9 N 7 9 4 5 1017.4 - 0.0
28/10:00pm 10.6 8.1 8.4 86 1.1 N 11 15 6 8 1017.4 - 0.0
28/09:30pm 10.0 7.4 7.9 87 1.0 N 11 13 6 7 1017.4 - 0.0
28/09:00pm 10.1 8.1 8.7 91 0.7 N 9 13 5 7 1017.4 1017.4 0.0
28/08:30pm 10.8 9.0 9.6 92 0.6 N 9 13 5 7 1017.3 - 0.0
28/08:00pm 11.0 8.9 9.6 91 0.7 N 11 15 6 8 1017.3 - 0.0
28/07:30pm 11.2 9.1 9.6 90 0.8 N 11 15 6 8 1017.0 - 0.0
28/07:00pm 11.7 9.6 9.6 87 1.1 N 11 15 6 8 1016.8 - 0.0
28/06:30pm 12.5 9.8 10.2 86 1.2 N 15 19 8 10 1016.5 - 0.0
28/06:00pm 13.3 10.7 10.7 84 1.4 N 15 20 8 11 1016.5 1016.5 0.0
28/05:30pm 14.0 11.5 11.2 83 1.5 NNW 15 20 8 11 1016.6 - 0.0
28/05:00pm 14.9 11.7 11.1 78 2.0 NNW 19 24 10 13 1016.5 - 0.0
28/04:30pm 15.7 12.8 11.1 74 2.5 NW 17 26 9 14 1016.1 - 0.0
28/04:00pm 15.9 12.7 11.3 74 2.5 NNW 19 26 10 14 1016.0 - 0.0
28/03:30pm 16.2 12.8 11.4 73 2.6 NNW 20 30 11 16 1016.4 - 0.0
28/03:00pm 15.9 12.8 11.7 76 2.3 NNW 19 24 10 13 1016.4 1016.4 0.0
28/02:54pm 16.0 12.9 11.6 75 2.4 NNW 19 24 10 13 1016.5 - 0.0
28/02:30pm 16.0 13.7 11.6 75 2.4 NNW 15 20 8 11 1016.7 - 0.0
28/02:00pm 15.9 13.6 11.7 76 2.3 NNW 15 22 8 12 1016.8 - 0.0
28/01:30pm 15.4 12.9 11.2 76 2.2 NNW 15 20 8 11 1017.0 - 0.0
28/01:00pm 14.5 11.8 10.3 76 2.2 NNW 15 20 8 11 1017.4 - 0.0
28/12:30pm 14.2 11.1 10.4 78 2.0 NNW 17 22 9 12 1017.8 - 0.0
28/12:07pm 14.1 11.3 10.1 77 2.1 NNW 15 20 8 11 1018.0 - 0.0
28/12:00pm 14.2 11.1 10.2 77 2.1 NNW 17 22 9 12 1018.2 1018.2 0.0
28/11:30am 14.8 11.9 11.0 78 2.0 NNW 17 24 9 13 1018.4 - 0.0
28/11:02am 14.4 11.3 10.4 77 2.1 NNW 17 24 9 13 1018.8 - 0.0
28/11:00am 14.3 11.1 10.1 76 2.2 NNW 17 24 9 13 1018.8 - 0.0
28/10:30am 13.8 10.9 9.5 75 2.2 NNW 15 20 8 11 1019.1 - 0.0
28/10:00am 13.5 10.8 9.0 74 2.3 NNW 13 20 7 11 1019.1 - 0.0
28/09:30am 12.6 10.1 8.1 74 2.2 N 11 19 6 10 1019.0 - 0.0
28/09:00am 11.8 8.3 7.3 74 2.2 N 15 20 8 11 1019.0 1019.0 0.0
28/08:30am 11.3 8.9 7.2 76 2.0 N 9 15 5 8 1019.0 - 0.0
28/08:00am 10.9 7.7 6.8 76 1.9 N 13 19 7 10 1018.7 - 0.0
28/07:30am 10.7 8.6 6.6 76 1.9 NNE 7 11 4 6 1018.4 - 0.0
28/07:00am 10.6 8.1 6.4 75 2.0 N 9 15 5 8 1018.3 - 0.0
28/06:30am 10.5 7.5 6.1 74 2.0 N 11 15 6 8 1017.9 - 0.0
28/06:00am 10.6 7.2 6.0 73 2.1 N 13 19 7 10 1017.9 1017.9 0.0
28/05:30am 10.7 8.5 6.3 74 2.1 N 7 11 4 6 1017.7 - 0.0
28/05:00am 10.4 5.9 6.0 74 2.0 N 19 22 10 12 1017.7 - 0.0
28/04:43am 9.6 6.2 6.1 79 1.6 N 13 17 7 9 1017.8 - 0.0
28/04:30am 9.1 6.0 5.7 79 1.5 NE 11 15 6 8 1017.9 - 0.0
28/04:00am 9.1 6.0 5.7 79 1.5 NNE 11 13 6 7 1018.2 - 0.0
28/03:30am 8.9 6.2 5.6 80 1.5 NNE 9 11 5 6 1018.3 - 0.0
28/03:00am 8.3 7.2 4.9 79 1.5 CALM 0 0 0 0 1018.3 1018.3 0.0
28/02:30am 9.9 8.4 4.9 71 2.2 N 2 6 1 3 1018.2 - 0.0
28/02:00am 11.0 8.2 5.3 68 2.6 N 9 13 5 7 1018.0 - 0.0
28/01:30am 11.1 8.1 5.8 70 2.5 N 11 13 6 7 1018.0 - 0.0
28/01:00am 11.0 7.9 5.7 70 2.4 N 11 15 6 8 1018.1 - 0.0
28/12:30am 11.8 8.4 6.1 68 2.7 N 13 15 7 8 1018.3 - 0.0
28/12:00am 11.8 8.5 6.3 69 2.6 N 13 17 7 9 1018.5 1018.5 0.0
 
Date/Time
CST
Temp
°C
App
Temp
°C
Dew
Point
Rel
Hum
%
Delta-T
°C
Wind Press
QNH
hPa
Press
MSL
hPa
Rain
since 9 am
mm
Dir
 
Spd
km/h
Gust
km/h
Spd
kts
Gust
kts
27/11:30pm 11.5 7.8 6.2 70 2.5 NNE 15 19 8 10 1018.8 - 0.0
27/11:00pm 12.1 8.8 6.2 67 2.8 N 13 19 7 10 1019.0 - 0.0
27/10:30pm 12.2 8.2 6.5 68 2.7 N 17 20 9 11 1019.1 - 0.0
27/10:00pm 12.8 8.8 6.6 66 3.0 N 17 20 9 11 1019.3 - 0.0
27/09:30pm 13.2 9.2 6.8 65 3.1 N 17 22 9 12 1019.3 - 0.0
27/09:00pm 13.3 9.0 6.9 65 3.1 NNE 19 20 10 11 1019.4 1019.4 0.0
27/08:30pm 13.4 9.5 7.2 66 3.0 NNE 17 20 9 11 1019.5 - 0.0
27/08:00pm 13.4 9.6 7.6 68 2.8 NNE 17 20 9 11 1019.5 - 0.0
27/07:30pm 13.7 10.3 7.7 67 3.0 N 15 19 8 10 1019.7 - 0.0
27/07:00pm 14.1 10.4 8.1 67 3.0 N 17 20 9 11 1019.7 - 0.0
27/06:30pm 14.0 10.7 8.2 68 2.9 NNE 15 19 8 10 1019.7 - 0.0
27/06:00pm 14.3 11.0 8.0 66 3.1 N 15 19 8 10 1019.7 1019.7 0.0
27/05:30pm 15.1 11.8 8.1 63 3.5 N 15 24 8 13 1019.5 - 0.0
27/05:00pm 15.4 11.9 8.6 64 3.5 N 17 22 9 12 1019.5 - 0.0
27/04:30pm 15.9 12.4 8.9 63 3.6 N 17 20 9 11 1019.5 - 0.0
27/04:00pm 16.5 12.6 8.7 60 4.0 NNW 19 26 10 14 1019.6 - 0.0
27/03:30pm 16.5 12.6 8.7 60 4.0 N 19 24 10 13 1019.5 - 0.0
27/03:00pm 16.8 13.0 9.0 60 4.0 N 19 24 10 13 1019.8 1019.8 0.0
27/02:30pm 17.1 13.2 8.8 58 4.3 NNW 19 28 10 15 1020.1 - 0.0
27/02:00pm 16.8 13.6 10.0 64 3.6 N 17 26 9 14 1020.4 - 0.0
27/01:30pm 16.7 13.0 9.4 62 3.8 N 19 24 10 13 1020.5 - 0.0
27/01:00pm 15.9 11.1 8.9 63 3.6 N 24 33 13 18 1021.2 - 0.0
27/12:30pm 15.9 10.2 8.2 60 3.9 N 28 37 15 20 1021.8 - 0.0
27/12:00pm 16.0 10.1 7.7 58 4.1 NNW 28 43 15 23 1022.3 1022.3 0.0
27/11:30am 15.6 9.3 7.4 58 4.1 N 30 43 16 23 1022.8 - 0.0
27/11:00am 15.5 10.2 7.0 57 4.2 N 24 37 13 20 1023.3 - 0.0
27/10:30am 14.9 10.0 8.4 65 3.3 N 24 33 13 18 1023.6 - 0.0
27/10:00am 14.7 9.8 7.0 60 3.8 N 22 35 12 19 1024.0 - 0.0
27/09:30am 13.3 8.4 7.1 66 3.0 N 22 30 12 16 1024.4 - 0.0
27/09:00am 13.1 9.1 6.7 65 3.1 N 17 24 9 13 1024.7 1024.7 0.0
27/08:30am 12.1 8.4 6.4 68 2.7 N 15 22 8 12 1024.3 - 0.0
27/08:00am 11.0 7.3 6.4 73 2.2 NNE 15 20 8 11 1024.0 - 0.0
27/07:30am 9.5 5.7 5.7 77 1.7 NNE 15 17 8 9 1024.0 - 0.0
27/07:00am 9.6 5.4 5.8 77 1.7 NNE 17 20 9 11 1024.1 - 0.0
27/06:30am 9.4 5.2 5.6 77 1.7 N 17 20 9 11 1024.1 - 0.0
27/06:00am 9.4 5.2 5.8 78 1.6 NNE 17 20 9 11 1023.8 1023.8 0.0
27/05:30am 9.5 5.0 6.0 79 1.6 NNE 19 24 10 13 1023.8 - 0.0
27/05:00am 9.9 5.2 6.2 78 1.7 N 20 24 11 13 1024.0 - 0.0
27/04:30am 9.4 5.3 6.1 80 1.5 N 17 20 9 11 1024.4 - 0.0
27/04:00am 9.4 5.3 6.1 80 1.5 N 17 20 9 11 1024.5 - 0.0
27/03:30am 9.7 5.3 6.4 80 1.5 N 19 22 10 12 1024.6 - 0.0
27/03:00am 9.6 5.6 6.5 81 1.4 N 17 20 9 11 1024.7 1024.7 0.0
27/02:30am 9.7 5.6 6.4 80 1.5 NNE 17 20 9 11 1024.6 - 0.0

Other Formats:

Comma delimited format used in spreadsheet applications
http://www.bom.gov.au/fwo/IDS60801/IDS60801.95677.axf

JavaScript Object Notation format (JSON) in row-major order
http://www.bom.gov.au/fwo/IDS60801/IDS60801.95677.json